Terminal Aerodrome Forecast
Issued by NWS Tuscon, AZ

Home | Current Version | Previous Version | Text Only | Print | Product List | Glossary On
Versions: 1 2 3 4 5 6 7 8 9 10 11 12 13 14 15 16
000
FTUS45 KTWC 051120
TAFTUS
TAF
KTUS 051120Z 0512/0612 15008KT P6SM SKC
     FM051800 32008KT P6SM FEW090 FEW250
     FM052300 32008KT P6SM VCSH SCT100 SCT250
     FM060400 16011KT P6SM SCT100 SCT250=

USA.gov is the U.S. government's official web portal to all federal, state and local government web resources and services.